Kashiwazaki, Japan
Current Conditions -  °F | °C
As of 4:00 PM on Monday 24 Nov 2014 (Local Time) from RJSN Reporting Station
Broken Clouds Broken Clouds  
Wind Chill: 54°   Ceiling: 3000
Heat Index: 54°   Visibility: 6mi
Dew Point: 45°   Wind: 5mph
Humidity: 72%   Direction: 40°NE
Pressure: 30.12"   Gusts: NA
Location:  37.38°N, 138.57°E
Report Text: RJSN 240700Z 04004KT 9999 FEW025 BKN030 BKN130 12/07 Q1020
Loading
Personal Weather Stations






























Interactive Weather Map New forecast layout! Learn more

10-Day Weather Forecast

Advertisements
Track Severe Weather on mobile